createdAt,value
2017-07-01T00:00:45.763Z,70.60
2017-07-01T00:03:13.283Z,70.90
2017-07-01T00:05:40.787Z,72.40
2017-07-01T00:08:08.311Z,73.40
2017-07-01T00:10:35.816Z,75.00
2017-07-01T00:13:03.315Z,74.30
2017-07-01T00:15:30.835Z,74.90
2017-07-01T00:17:58.336Z,76.40
2017-07-01T00:20:25.859Z,75.70
2017-07-01T00:22:53.363Z,75.80
2017-07-01T00:25:21.650Z,76.00
2017-07-01T00:27:49.922Z,74.80
2017-07-01T00:30:18.216Z,75.10
2017-07-01T00:32:45.720Z,75.10
2017-07-01T00:35:13.219Z,75.40
2017-07-01T00:37:41.508Z,75.90
2017-07-01T00:40:09.014Z,75.90
2017-07-01T00:42:36.527Z,76.70
2017-07-01T00:45:04.031Z,77.10
2017-07-01T00:47:31.547Z,77.80
2017-07-01T00:49:59.043Z,76.80
2017-07-01T00:52:26.571Z,76.80
2017-07-01T00:54:54.071Z,77.20
2017-07-01T00:57:21.566Z,76.00
2017-07-01T00:59:49.078Z,76.00
2017-07-01T01:02:16.583Z,75.60
2017-07-01T01:04:44.104Z,76.10
2017-07-01T01:07:11.611Z,76.00
2017-07-01T01:09:39.135Z,75.90
2017-07-01T01:12:06.627Z,75.30
2017-07-01T01:14:34.163Z,75.20
2017-07-01T01:17:01.668Z,75.90
2017-07-01T01:19:29.163Z,76.00
2017-07-01T01:21:57.523Z,75.30
2017-07-01T01:24:25.027Z,75.00
2017-07-01T01:26:52.546Z,74.50
2017-07-01T01:29:20.052Z,74.70
2017-07-01T01:31:47.571Z,74.30
2017-07-01T01:34:15.073Z,74.60
2017-07-01T01:36:42.599Z,74.30
2017-07-01T01:39:10.099Z,74.70
2017-07-01T01:41:37.603Z,73.70
2017-07-01T01:44:05.148Z,74.90
2017-07-01T01:46:32.655Z,74.00
2017-07-01T01:49:00.176Z,74.00
2017-07-01T01:51:27.679Z,74.20
2017-07-01T01:53:55.191Z,73.50
2017-07-01T01:56:22.694Z,72.50
2017-07-01T01:58:50.216Z,71.90
2017-07-01T02:01:17.727Z,71.50
2017-07-01T02:03:45.231Z,71.90
2017-07-01T02:06:12.751Z,71.80
2017-07-01T02:08:44.124Z,72.20
2017-07-01T02:11:11.638Z,72.40
2017-07-01T02:13:39.139Z,72.50
2017-07-01T02:16:08.587Z,73.20
2017-07-01T02:18:36.091Z,72.50
2017-07-01T02:21:07.451Z,72.50
2017-07-01T02:23:34.951Z,71.60
2017-07-01T02:26:21.278Z,71.10
2017-07-01T02:28:50.019Z,70.40
2017-07-01T02:31:19.101Z,71.10
2017-07-01T02:33:51.359Z,71.10
2017-07-01T02:36:21.788Z,69.60
2017-07-01T02:38:49.307Z,70.00
2017-07-01T02:41:16.811Z,69.90
2017-07-01T02:43:44.332Z,70.10
2017-07-01T02:46:19.478Z,69.00
2017-07-01T02:48:52.536Z,69.50
2017-07-01T02:51:39.643Z,69.10
2017-07-01T02:54:07.162Z,69.00
2017-07-01T02:56:37.287Z,69.40
2017-07-01T02:59:15.530Z,69.30
2017-07-01T03:01:51.679Z,69.40
2017-07-01T03:04:19.968Z,68.60
2017-07-01T03:06:47.473Z,68.60
2017-07-01T03:09:14.979Z,69.10
2017-07-01T03:11:43.265Z,69.20
2017-07-01T03:14:10.768Z,69.90
2017-07-01T03:16:38.291Z,69.10
2017-07-01T03:19:05.787Z,69.90
2017-07-01T03:21:33.323Z,69.60
2017-07-01T03:24:00.826Z,69.60
2017-07-01T03:26:28.319Z,69.90
2017-07-01T03:28:57.680Z,69.90
2017-07-01T03:31:25.179Z,69.50
2017-07-01T03:33:52.692Z,70.00
2017-07-01T03:36:20.948Z,70.30
2017-07-01T03:39:00.606Z,70.70
2017-07-01T03:41:51.539Z,70.10
2017-07-01T03:44:35.209Z,70.30
2017-07-01T03:47:02.707Z,70.30
2017-07-01T03:49:33.972Z,69.60
2017-07-01T03:52:02.238Z,69.30
2017-07-01T03:54:34.403Z,69.30
2017-07-01T03:57:01.924Z,69.60
2017-07-01T03:59:29.426Z,69.40
2017-07-01T04:01:56.942Z,69.80
2017-07-01T04:04:24.444Z,70.00
2017-07-01T04:06:51.963Z,69.80
2017-07-01T04:09:19.468Z,69.60
2017-07-01T04:11:48.591Z,68.90
2017-07-01T04:14:16.115Z,68.90
2017-07-01T04:16:44.382Z,69.50
2017-07-01T04:19:12.619Z,68.80
2017-07-01T04:21:40.121Z,69.30
2017-07-01T04:24:07.651Z,68.60
2017-07-01T04:26:35.151Z,68.40
2017-07-01T04:29:03.419Z,68.60
2017-07-01T04:31:31.703Z,67.70
2017-07-01T04:33:59.971Z,67.90
2017-07-01T04:36:28.251Z,68.10
2017-07-01T04:39:12.589Z,67.80
2017-07-01T04:42:14.620Z,67.90
2017-07-01T04:44:42.121Z,68.00
2017-07-01T04:47:09.640Z,68.60
2017-07-01T04:49:37.143Z,68.40
2017-07-01T04:52:06.843Z,68.10
2017-07-01T04:54:37.830Z,68.10
2017-07-01T04:57:20.226Z,68.80
2017-07-01T05:00:05.247Z,67.20
2017-07-01T05:02:32.772Z,66.70
2017-07-01T05:05:00.276Z,66.80
2017-07-01T05:07:48.705Z,67.50
2017-07-01T05:10:22.207Z,67.30
2017-07-01T05:12:49.727Z,67.30
2017-07-01T05:15:37.984Z,66.80
2017-07-01T05:18:05.519Z,67.00
2017-07-01T05:20:49.851Z,65.70
2017-07-01T05:23:26.767Z,65.10
2017-07-01T05:26:07.704Z,65.20
2017-07-01T05:28:39.668Z,67.60
2017-07-01T05:31:26.807Z,70.40
2017-07-01T05:34:03.907Z,70.40
2017-07-01T05:36:33.258Z,71.20
2017-07-01T05:39:01.624Z,72.30
2017-07-01T05:41:34.007Z,70.70
2017-07-01T05:44:03.214Z,72.00
2017-07-01T05:46:36.964Z,71.70
2017-07-01T05:49:04.466Z,71.70
2017-07-01T05:51:49.727Z,71.90
2017-07-01T05:54:24.690Z,72.50
2017-07-01T05:56:52.212Z,71.80
2017-07-01T05:59:22.644Z,72.10
2017-07-01T06:01:50.143Z,72.00
2017-07-01T06:04:17.668Z,71.50
2017-07-01T06:06:45.162Z,70.00
2017-07-01T06:09:12.679Z,70.90
2017-07-01T06:11:40.193Z,70.20
2017-07-01T06:14:07.706Z,68.80
2017-07-01T06:16:39.716Z,69.80
2017-07-01T06:19:17.160Z,67.70
2017-07-01T06:21:46.267Z,68.00
2017-07-01T06:24:21.307Z,68.60
2017-07-01T06:27:18.291Z,68.70
2017-07-01T06:29:54.504Z,69.10
2017-07-01T06:32:43.475Z,68.70
2017-07-01T06:35:32.071Z,68.20
2017-07-01T06:38:31.163Z,68.10
2017-07-01T06:41:16.127Z,65.90
2017-07-01T06:44:00.376Z,64.80
2017-07-01T06:46:31.302Z,61.60
2017-07-01T06:49:06.575Z,61.10
2017-07-01T06:51:34.090Z,60.90
2017-07-01T06:54:17.315Z,57.90
2017-07-01T06:56:44.831Z,58.50
2017-07-01T06:59:12.327Z,59.40
2017-07-01T07:01:39.833Z,59.00
2017-07-01T07:04:07.343Z,57.00
2017-07-01T07:06:34.843Z,57.30
2017-07-01T07:09:05.171Z,56.80
2017-07-01T07:11:32.674Z,56.70
2017-07-01T07:14:00.940Z,54.80
2017-07-01T07:16:29.233Z,54.50
2017-07-01T07:18:56.735Z,54.40
2017-07-01T07:21:24.255Z,56.30
2017-07-01T07:23:52.520Z,55.80
2017-07-01T07:26:20.049Z,55.80
2017-07-01T07:28:47.576Z,55.20
2017-07-01T07:31:15.079Z,56.10
2017-07-01T07:33:42.600Z,56.50
2017-07-01T07:36:10.132Z,56.50
2017-07-01T07:38:37.689Z,56.00
2017-07-01T07:41:05.212Z,56.10
2017-07-01T07:43:32.723Z,55.40
2017-07-01T07:46:00.244Z,55.40
2017-07-01T07:48:27.747Z,54.60
2017-07-01T07:50:55.267Z,56.10
2017-07-01T07:53:22.767Z,57.00
2017-07-01T07:55:50.271Z,56.10
2017-07-01T07:58:18.565Z,56.80
2017-07-01T08:00:46.067Z,56.80
2017-07-01T08:03:13.587Z,56.60
2017-07-01T08:05:41.092Z,57.30
2017-07-01T08:08:08.607Z,57.70
2017-07-01T08:10:36.127Z,57.00
2017-07-01T08:13:03.671Z,56.50
2017-07-01T08:15:31.183Z,55.20
2017-07-01T08:17:58.687Z,53.50
2017-07-01T08:20:26.203Z,54.10
2017-07-01T08:22:53.711Z,54.90
2017-07-01T08:25:21.203Z,56.50
2017-07-01T08:27:49.487Z,54.50
2017-07-01T08:30:16.983Z,54.50
2017-07-01T08:32:44.494Z,55.50
2017-07-01T08:35:12.762Z,54.30
2017-07-01T08:37:40.290Z,54.30
2017-07-01T08:40:07.795Z,53.50
2017-07-01T08:42:35.295Z,54.90
2017-07-01T08:45:02.823Z,53.00
2017-07-01T08:47:30.332Z,52.20
2017-07-01T08:49:57.851Z,54.60
2017-07-01T08:52:25.355Z,51.80
2017-07-01T08:54:52.879Z,50.30
2017-07-01T08:57:20.377Z,50.40
2017-07-01T08:59:47.885Z,50.70
2017-07-01T09:02:15.403Z,50.50
2017-07-01T09:04:42.907Z,50.70
2017-07-01T09:07:10.435Z,49.90
2017-07-01T09:09:37.934Z,50.10
2017-07-01T09:12:05.435Z,49.80
2017-07-01T09:14:32.959Z,51.80
2017-07-01T09:17:00.460Z,52.50
2017-07-01T09:19:28.756Z,50.60
2017-07-01T09:21:56.260Z,50.60
2017-07-01T09:24:23.761Z,48.90
2017-07-01T09:26:51.279Z,50.80
2017-07-01T09:29:18.785Z,50.80
2017-07-01T09:31:46.314Z,50.70
2017-07-01T09:34:13.811Z,51.20
2017-07-01T09:36:41.312Z,50.80
2017-07-01T09:39:08.834Z,48.10
2017-07-01T09:41:36.335Z,49.10
2017-07-01T09:44:03.851Z,49.50
2017-07-01T09:46:31.350Z,46.80
2017-07-01T09:48:58.879Z,47.70
2017-07-01T09:51:26.384Z,48.50
2017-07-01T09:53:53.889Z,44.70
2017-07-01T09:56:21.412Z,45.60
2017-07-01T09:58:48.915Z,46.20
2017-07-01T10:01:16.438Z,45.30
2017-07-01T10:03:43.940Z,45.80
2017-07-01T10:06:11.443Z,46.60
2017-07-01T10:08:38.964Z,44.60
2017-07-01T10:11:06.472Z,43.70
2017-07-01T10:13:33.996Z,45.70
2017-07-01T10:16:01.495Z,43.70
2017-07-01T10:18:29.000Z,44.70
2017-07-01T10:20:56.525Z,41.90
2017-07-01T10:23:24.028Z,42.80
2017-07-01T10:25:51.564Z,43.20
2017-07-01T10:28:19.071Z,44.70
2017-07-01T10:30:46.576Z,45.60
2017-07-01T10:33:14.100Z,45.90
2017-07-01T10:35:41.644Z,44.00
2017-07-01T10:38:09.919Z,46.50
2017-07-01T10:40:37.418Z,46.60
2017-07-01T10:43:04.915Z,48.00
2017-07-01T10:45:32.434Z,46.70
2017-07-01T10:47:59.940Z,45.60
2017-07-01T10:50:28.235Z,44.70
2017-07-01T10:52:55.734Z,44.70
2017-07-01T10:55:23.226Z,46.10
2017-07-01T10:57:50.742Z,46.70
2017-07-01T11:00:18.248Z,46.30
2017-07-01T11:02:46.534Z,46.50
2017-07-01T11:05:14.042Z,46.50
2017-07-01T11:07:41.547Z,47.30
2017-07-01T11:10:09.071Z,47.40
2017-07-01T11:12:36.575Z,44.90
2017-07-01T11:15:04.103Z,43.70
2017-07-01T11:17:31.606Z,44.70
2017-07-01T11:19:59.105Z,45.40
2017-07-01T11:22:26.630Z,45.90
2017-07-01T11:24:54.135Z,45.70
2017-07-01T11:27:21.671Z,43.20
2017-07-01T11:29:49.183Z,43.20
2017-07-01T11:32:16.690Z,45.70
2017-07-01T11:34:44.211Z,43.40
2017-07-01T11:37:11.715Z,45.30
2017-07-01T11:39:39.244Z,44.30
2017-07-01T11:42:06.747Z,46.00
2017-07-01T11:44:34.246Z,45.30
2017-07-01T11:47:01.757Z,46.00
2017-07-01T11:49:29.261Z,41.10
2017-07-01T11:51:56.786Z,45.20
2017-07-01T11:54:25.053Z,43.00
2017-07-01T11:56:52.554Z,43.00
2017-07-01T11:59:20.073Z,42.10
2017-07-01T12:01:47.579Z,42.10
2017-07-01T12:04:15.107Z,43.90
2017-07-01T12:06:42.607Z,45.40
2017-07-01T12:09:10.107Z,42.70
2017-07-01T12:11:38.395Z,44.50
2017-07-01T12:14:06.666Z,41.60
2017-07-01T12:16:34.954Z,42.30
2017-07-01T12:19:02.452Z,42.30
2017-07-01T12:21:29.954Z,42.50
2017-07-01T12:23:58.243Z,43.70
2017-07-01T12:26:25.743Z,43.70
2017-07-01T12:28:53.267Z,43.60
2017-07-01T12:31:20.767Z,43.20
2017-07-01T12:33:48.264Z,42.70
2017-07-01T12:36:16.547Z,42.90
2017-07-01T12:38:44.056Z,42.90
2017-07-01T12:41:11.583Z,42.60
2017-07-01T12:43:39.083Z,42.40
2017-07-01T12:46:06.587Z,42.90
2017-07-01T12:48:34.103Z,41.20
2017-07-01T12:51:01.599Z,43.00
2017-07-01T12:53:29.125Z,43.00
2017-07-01T12:55:56.622Z,42.60
2017-07-01T12:58:24.120Z,40.60
2017-07-01T13:00:51.638Z,41.60
2017-07-01T13:03:19.147Z,41.20
2017-07-01T13:05:46.667Z,41.30
2017-07-01T13:08:14.174Z,42.30
2017-07-01T13:10:41.676Z,41.50
2017-07-01T13:13:09.202Z,42.20
2017-07-01T13:15:36.703Z,42.10
2017-07-01T13:18:04.227Z,42.20
2017-07-01T13:20:31.749Z,43.90
2017-07-01T13:22:59.255Z,42.90
2017-07-01T13:25:26.775Z,42.70
2017-07-01T13:27:54.284Z,41.80
2017-07-01T13:30:21.787Z,42.30
2017-07-01T13:32:49.308Z,42.40
2017-07-01T13:35:16.807Z,43.00
2017-07-01T13:37:44.327Z,43.70
2017-07-01T13:40:11.827Z,44.40
2017-07-01T13:42:39.342Z,43.60
2017-07-01T13:45:06.859Z,42.50
2017-07-01T13:47:34.367Z,41.60
2017-07-01T13:50:01.887Z,44.50
2017-07-01T13:52:30.156Z,42.00
2017-07-01T13:54:58.447Z,41.60
2017-07-01T13:57:25.967Z,41.50
2017-07-01T13:59:53.472Z,43.30
2017-07-01T14:02:20.988Z,41.60
2017-07-01T14:04:48.486Z,42.70
2017-07-01T14:07:16.011Z,43.80
2017-07-01T14:09:44.387Z,42.60
2017-07-01T14:12:11.916Z,43.00
2017-07-01T14:14:39.430Z,43.20
2017-07-01T14:17:06.940Z,42.50
2017-07-01T14:19:34.481Z,43.80
2017-07-01T14:22:01.986Z,43.80
2017-07-01T14:24:29.499Z,43.40
2017-07-01T14:26:57.011Z,42.00
2017-07-01T14:29:25.283Z,42.80
2017-07-01T14:31:52.794Z,42.70
2017-07-01T14:34:20.302Z,43.80
2017-07-01T14:36:48.590Z,44.30
2017-07-01T14:39:16.091Z,44.90
2017-07-01T14:41:43.600Z,42.20
2017-07-01T14:44:11.886Z,44.40
2017-07-01T14:46:39.392Z,44.40
2017-07-01T14:49:06.912Z,41.40
2017-07-01T14:51:34.414Z,43.40
2017-07-01T14:54:01.914Z,42.40
2017-07-01T14:56:29.431Z,43.40
2017-07-01T14:58:56.950Z,44.00
2017-07-01T15:01:24.467Z,42.50
2017-07-01T15:03:51.970Z,43.60
2017-07-01T15:06:19.477Z,42.20
2017-07-01T15:08:46.994Z,42.60
2017-07-01T15:11:14.495Z,44.50
2017-07-01T15:13:42.019Z,44.40
2017-07-01T15:16:09.523Z,42.40
2017-07-01T15:18:37.023Z,43.30
2017-07-01T15:21:04.551Z,43.50
2017-07-01T15:23:32.055Z,42.80
2017-07-01T15:25:59.579Z,44.40
2017-07-01T15:28:27.094Z,43.90
2017-07-01T15:30:54.603Z,42.00
2017-07-01T15:33:22.123Z,42.80
2017-07-01T15:35:49.626Z,43.20
2017-07-01T15:38:17.151Z,43.00
2017-07-01T15:40:45.419Z,44.00
2017-07-01T15:43:12.924Z,44.00
2017-07-01T15:45:40.439Z,44.10
2017-07-01T15:48:07.943Z,45.10
2017-07-01T15:50:35.463Z,44.00
2017-07-01T15:53:03.731Z,43.70
2017-07-01T15:55:31.251Z,43.50
2017-07-01T15:57:58.756Z,44.00
2017-07-01T16:00:39.091Z,45.30
2017-07-01T16:03:06.596Z,45.30
2017-07-01T16:05:34.132Z,45.40
2017-07-01T16:08:02.415Z,45.20
2017-07-01T16:10:29.919Z,45.20
2017-07-01T16:12:57.434Z,44.20
2017-07-01T16:15:24.937Z,44.20
2017-07-01T16:17:52.451Z,44.10
2017-07-01T16:20:19.951Z,44.90
2017-07-01T16:22:47.483Z,45.40
2017-07-01T16:25:14.984Z,45.70
2017-07-01T16:27:42.486Z,45.30
2017-07-01T16:30:10.002Z,45.30
2017-07-01T16:32:37.502Z,46.00
2017-07-01T16:35:05.021Z,46.60
2017-07-01T16:37:32.531Z,45.90
2017-07-01T16:40:00.052Z,43.70
2017-07-01T16:42:27.559Z,44.30
2017-07-01T16:44:55.063Z,45.30
2017-07-01T16:47:22.585Z,45.40
2017-07-01T16:49:50.083Z,45.80
2017-07-01T16:52:17.603Z,44.60
2017-07-01T16:54:45.103Z,44.40
2017-07-01T16:57:12.628Z,44.70
2017-07-01T16:59:40.143Z,43.80
2017-07-01T17:02:07.646Z,44.50
2017-07-01T17:04:35.163Z,44.80
2017-07-01T17:07:02.667Z,45.20
2017-07-01T17:09:30.183Z,45.50
2017-07-01T17:11:57.687Z,45.10
2017-07-01T17:14:25.208Z,45.10
2017-07-01T17:16:52.707Z,45.10
2017-07-01T17:19:20.212Z,45.30
2017-07-01T17:21:47.734Z,45.40
2017-07-01T17:24:16.003Z,45.50
2017-07-01T17:26:43.531Z,45.40
2017-07-01T17:29:11.035Z,44.90
2017-07-01T17:31:39.327Z,45.70
2017-07-01T17:34:06.830Z,45.70
2017-07-01T17:36:34.331Z,45.90
2017-07-01T17:39:02.612Z,47.90
2017-07-01T17:41:30.116Z,47.80
2017-07-01T17:43:57.635Z,48.20
2017-07-01T17:46:25.155Z,48.50
2017-07-01T17:48:52.671Z,48.80
2017-07-01T17:51:20.171Z,49.50
2017-07-01T17:53:47.671Z,49.40
2017-07-01T17:56:15.202Z,50.10
2017-07-01T17:58:42.702Z,50.60
2017-07-01T18:01:10.219Z,50.70
2017-07-01T18:03:37.727Z,51.60
2017-07-01T18:06:05.239Z,51.50
2017-07-01T18:08:32.748Z,51.80
2017-07-01T18:11:00.251Z,52.10
2017-07-01T18:13:28.531Z,52.30
2017-07-01T18:15:56.039Z,52.30
2017-07-01T18:18:23.559Z,52.60
2017-07-01T18:20:51.063Z,52.50
2017-07-01T18:23:18.594Z,52.90
2017-07-01T18:25:46.091Z,52.30
2017-07-01T18:28:13.595Z,52.60
2017-07-01T18:30:41.119Z,53.20
2017-07-01T18:33:08.622Z,52.80
2017-07-01T18:35:36.138Z,52.90
2017-07-01T18:38:03.634Z,53.30
2017-07-01T18:40:31.162Z,52.70
2017-07-01T18:42:58.667Z,53.40
2017-07-01T18:45:26.170Z,53.60
2017-07-01T18:47:53.687Z,53.40
2017-07-01T18:50:21.191Z,53.50
2017-07-01T18:52:48.711Z,54.20
2017-07-01T18:55:16.207Z,54.40
2017-07-01T18:57:43.744Z,55.30
2017-07-01T19:00:11.251Z,55.10
2017-07-01T19:02:38.751Z,55.10
2017-07-01T19:05:06.276Z,55.20
2017-07-01T19:07:33.783Z,55.70
2017-07-01T19:10:01.299Z,55.50
2017-07-01T19:12:28.802Z,55.20
2017-07-01T19:14:56.323Z,55.10
2017-07-01T19:17:23.830Z,55.10
2017-07-01T19:19:51.343Z,55.40
2017-07-01T19:22:18.867Z,55.50
2017-07-01T19:24:46.367Z,56.00
2017-07-01T19:27:13.887Z,56.20
2017-07-01T19:29:41.393Z,56.00
2017-07-01T19:32:08.917Z,56.10
2017-07-01T19:34:36.430Z,56.50
2017-07-01T19:37:03.931Z,56.40
2017-07-01T19:39:31.446Z,56.60
2017-07-01T19:41:58.938Z,56.60
2017-07-01T19:44:26.456Z,55.70
2017-07-01T19:46:53.955Z,55.00
2017-07-01T19:49:21.476Z,54.80
2017-07-01T19:51:48.979Z,54.80
2017-07-01T19:54:16.479Z,55.10
2017-07-01T19:56:43.999Z,55.50
2017-07-01T19:59:11.502Z,55.90
2017-07-01T20:01:39.020Z,55.70
2017-07-01T20:04:06.523Z,56.20
2017-07-01T20:06:34.049Z,56.30
2017-07-01T20:09:01.551Z,55.70
2017-07-01T20:11:29.051Z,55.70
2017-07-01T20:13:56.566Z,56.20
2017-07-01T20:16:24.072Z,56.00
2017-07-01T20:18:51.595Z,55.80
2017-07-01T20:21:19.867Z,56.90
2017-07-01T20:23:48.160Z,57.20
2017-07-01T20:26:15.654Z,57.20
2017-07-01T20:28:43.155Z,57.60
2017-07-01T20:31:10.674Z,57.40
2017-07-01T20:33:38.174Z,57.20
2017-07-01T20:36:06.463Z,57.70
2017-07-01T20:38:33.962Z,57.10
2017-07-01T20:41:01.484Z,56.90
2017-07-01T20:43:28.984Z,57.20
2017-07-01T20:45:56.482Z,57.40
2017-07-01T20:48:24.771Z,58.20
2017-07-01T20:50:53.038Z,58.20
2017-07-01T20:53:21.331Z,58.40
2017-07-01T20:55:48.838Z,58.30
2017-07-01T20:58:16.363Z,58.60
2017-07-01T21:00:43.863Z,58.90
2017-07-01T21:03:11.383Z,59.30
2017-07-01T21:05:38.883Z,59.40
2017-07-01T21:08:06.382Z,59.40
2017-07-01T21:10:33.899Z,59.70
2017-07-01T21:13:01.404Z,60.00
2017-07-01T21:15:28.923Z,60.40
2017-07-01T21:17:56.434Z,60.80
2017-07-01T21:20:23.967Z,61.10
2017-07-01T21:22:51.467Z,61.20
2017-07-01T21:25:18.991Z,61.80
2017-07-01T21:27:46.511Z,61.50
2017-07-01T21:30:14.010Z,62.20
2017-07-01T21:32:41.530Z,62.60
2017-07-01T21:35:09.032Z,63.30
2017-07-01T21:37:36.549Z,63.40
2017-07-01T21:40:04.057Z,63.40
2017-07-01T21:42:31.555Z,63.40
2017-07-01T21:44:59.071Z,63.60
2017-07-01T21:47:26.575Z,64.20
2017-07-01T21:49:54.091Z,64.20
2017-07-01T21:52:21.600Z,64.30
2017-07-01T21:54:49.124Z,64.40
2017-07-01T21:57:16.631Z,64.20
2017-07-01T21:59:44.903Z,64.80
2017-07-01T22:02:13.187Z,64.70
2017-07-01T22:04:41.461Z,64.70
2017-07-01T22:07:08.983Z,64.70
2017-07-01T22:09:36.489Z,64.30
2017-07-01T22:12:04.015Z,64.60
2017-07-01T22:14:31.515Z,64.40
2017-07-01T22:16:59.036Z,64.70
2017-07-01T22:19:26.541Z,64.70
2017-07-01T22:21:54.047Z,64.10
2017-07-01T22:24:21.563Z,64.50
2017-07-01T22:26:49.067Z,64.80
2017-07-01T22:29:16.605Z,64.50
2017-07-01T22:31:44.111Z,64.30
2017-07-01T22:34:11.630Z,64.70
2017-07-01T22:36:39.132Z,64.90
2017-07-01T22:39:06.646Z,64.50
2017-07-01T22:41:34.144Z,64.60
2017-07-01T22:44:01.650Z,64.80
2017-07-01T22:46:29.172Z,65.00
2017-07-01T22:48:56.683Z,64.70
2017-07-01T22:51:24.199Z,64.90
2017-07-01T22:53:51.699Z,64.90
2017-07-01T22:56:19.221Z,65.10
2017-07-01T22:58:46.719Z,65.10
2017-07-01T23:01:14.247Z,65.10
2017-07-01T23:03:41.747Z,64.80
2017-07-01T23:06:09.246Z,65.10
2017-07-01T23:08:36.767Z,65.10
2017-07-01T23:11:04.263Z,65.40
2017-07-01T23:13:31.775Z,65.50
2017-07-01T23:15:59.272Z,65.30
2017-07-01T23:18:26.786Z,65.60
2017-07-01T23:20:54.288Z,65.60
2017-07-01T23:23:21.808Z,65.60
2017-07-01T23:25:49.315Z,65.80
2017-07-01T23:28:16.811Z,65.60
2017-07-01T23:30:44.331Z,66.10
2017-07-01T23:33:11.831Z,66.20
2017-07-01T23:35:39.352Z,66.00
2017-07-01T23:38:06.855Z,66.10
2017-07-01T23:40:35.135Z,66.10
2017-07-01T23:43:03.394Z,67.60
2017-07-01T23:45:30.916Z,66.90
2017-07-01T23:47:58.420Z,67.00
2017-07-01T23:50:25.924Z,67.30
2017-07-01T23:52:53.447Z,67.90
2017-07-01T23:55:21.711Z,68.20
2017-07-01T23:57:49.227Z,68.20
